Terminal Aerodrome Forecast
Issued by NWS

Home | Current Version | Previous Version | Text Only | Print | Product List | Glossary On
Versions: 1 2 3 4 5 6 7 8 9 10 11 12 13 14 15 16 17
000
FTUS42 KILM 020520
TAFCRE
TAF
KCRE 020520Z 0206/0306 23006KT P6SM VCSH BKN070
     FM021200 26008KT P6SM FEW050 SCT120 BKN200
     FM021800 21014KT P6SM VCSH SCT050 BKN200=

USA.gov is the U.S. government's official web portal to all federal, state and local government web resources and services.